Terminal Aerodrome Forecast
Issued by NWS

Home | Current Version | Previous Version | Text Only | Print | Product List | Glossary On
Versions: 1 2 3 4 5 6 7 8 9 10 11 12 13 14 15 16 17 18
000
FTUS43 KMQT 210932 AAA
TAFSAW
TAF AMD
KSAW 210932Z 2110/2206 01010KT 3SM BR BKN028
      TEMPO 2110/2113 SCT009 BKN015
     FM211300 02005KT 5SM BR SCT015
     FM211500 03005KT P6SM FEW120
     FM220100 12004KT P6SM SCT045
     FM220400 17005KT 5SM BR BKN010=

USA.gov is the U.S. government's official web portal to all federal, state and local government web resources and services.